Time;durP1;ratioP1;P1;durP2;ratioP2;P2;SDS_P1;SDS_P2;PMS_P1;PMS_P2;Temp;Humidity;BMP_temperature;BMP_pressure;BME280_temperature;BME280_humidity;BME280_pressure;Samples;Min_cycle;Max_cycle;Signal;HPM_P1;HPM_P2
2022/09/09 00:01:14;;;;;;;2.42;0.80;;;;;;;23.91;62.60;97876.69;4425292;32;20074;-80
2022/09/09 00:03:49;;;;;;;1.98;1.00;;;;;;;23.26;64.05;97880.53;4410944;32;20167;-80
2022/09/09 00:06:42;;;;;;;2.17;0.70;;;;;;;21.74;70.47;97877.34;4425047;32;20158;-80
2022/09/09 00:09:29;;;;;;;7.87;0.85;;;;;;;21.28;72.91;97873.59;4411723;32;20097;-80
2022/09/09 00:12:18;;;;;;;1.12;1.00;;;;;;;20.72;74.90;97869.69;4411260;32;20100;-80
2022/09/09 00:14:55;;;;;;;0.73;0.70;;;;;;;20.50;76.77;97873.34;4424790;32;20116;-80
2022/09/09 00:17:26;;;;;;;1.00;0.90;;;;;;;20.10;78.34;97875.06;4425352;32;20578;-80
2022/09/09 00:19:56;;;;;;;1.40;0.90;;;;;;;19.76;80.62;97869.19;4424926;32;20089;-80
2022/09/09 00:22:26;;;;;;;1.48;0.80;;;;;;;19.68;80.17;97872.44;4411543;32;20089;-80
2022/09/09 00:24:54;;;;;;;1.45;1.00;;;;;;;19.81;80.06;97882.72;4411411;32;20097;-80
2022/09/09 00:27:33;;;;;;;1.23;0.90;;;;;;;19.59;80.58;97881.06;4411213;32;20110;-80
2022/09/09 00:30:22;;;;;;;1.77;1.00;;;;;;;19.98;78.90;97876.91;4411527;32;20094;-80
2022/09/09 00:32:53;;;;;;;1.62;0.93;;;;;;;19.78;80.38;97870.75;4425188;32;20153;-80
2022/09/09 00:35:37;;;;;;;1.80;1.00;;;;;;;19.56;80.97;97876.88;4411052;32;20109;-80
2022/09/09 00:38:16;;;;;;;1.70;1.15;;;;;;;19.78;79.87;97862.88;4425198;32;20555;-80
2022/09/09 00:40:59;;;;;;;3.65;1.10;;;;;;;19.86;79.69;97864.84;4410963;32;20108;-80
2022/09/09 00:43:36;;;;;;;2.65;1.20;;;;;;;19.33;81.48;97860.41;4411344;32;20090;-80
2022/09/09 00:46:29;;;;;;;3.70;1.20;;;;;;;19.83;80.06;97873.78;4424972;32;20102;-80
2022/09/09 00:49:18;;;;;;;1.42;0.90;;;;;;;20.42;77.65;97881.06;4410935;32;20499;-80
2022/09/09 00:51:50;;;;;;;1.17;1.08;;;;;;;20.23;77.37;97887.00;4425009;32;20112;-80
2022/09/09 00:54:35;;;;;;;1.60;1.10;;;;;;;20.55;76.75;97893.12;4424766;32;20147;-80
2022/09/09 00:57:11;;;;;;;3.78;1.17;;;;;;;20.76;75.27;97901.75;4424935;32;20094;-80
2022/09/09 00:59:51;;;;;;;2.00;1.08;;;;;;;21.76;71.11;97901.66;4425024;32;20568;-80
2022/09/09 01:02:44;;;;;;;1.95;1.10;;;;;;;21.76;70.96;97899.03;4410881;32;20089;-80
2022/09/09 01:05:19;;;;;;;1.70;1.00;;;;;;;22.60;67.06;97896.53;4417984;32;20081;-80
2022/09/09 01:07:48;;;;;;;1.62;0.90;;;;;;;22.32;68.14;97901.72;4424882;32;20094;-80
2022/09/09 01:10:50;;;;;;;1.33;0.90;;;;;;;22.95;65.41;97906.34;4410426;32;20128;-80
2022/09/09 01:13:33;;;;;;;3.33;1.02;;;;;;;23.92;61.71;97911.78;4384898;32;20105;-80
2022/09/09 01:16:05;;;;;;;1.27;1.00;;;;;;;24.25;59.71;97910.22;4409154;32;21039;-80
2022/09/09 01:18:35;;;;;;;1.77;1.12;;;;;;;24.29;59.34;97906.28;4395906;32;20106;-80
2022/09/09 01:21:15;;;;;;;1.83;1.10;;;;;;;24.68;57.81;97904.09;4395800;32;20192;-80
2022/09/09 01:24:12;;;;;;;2.03;0.90;;;;;;;23.74;60.69;97905.72;4408830;32;20086;-80
2022/09/09 01:26:41;;;;;;;1.70;1.00;;;;;;;23.77;60.14;97897.50;4409188;32;20100;-80
2022/09/09 01:29:11;;;;;;;2.03;0.77;;;;;;;23.21;62.44;97891.53;4409212;32;20097;-80
2022/09/09 01:31:52;;;;;;;1.20;0.90;;;;;;;23.17;62.15;97899.84;4408798;32;20102;-80
2022/09/09 01:34:19;;;;;;;1.52;0.82;;;;;;;22.59;63.90;97903.59;4409016;32;20086;-80
2022/09/09 01:36:47;;;;;;;1.73;0.90;;;;;;;24.07;58.59;97902.34;4408658;32;20503;-80
2022/09/09 01:39:14;;;;;;;1.12;0.90;;;;;;;24.52;56.46;97896.91;4395394;32;20102;-80
2022/09/09 01:41:41;;;;;;;0.90;0.90;;;;;;;24.33;56.90;97902.38;4408900;32;20120;-80
2022/09/09 01:44:09;;;;;;;5.40;1.15;;;;;;;23.28;60.06;97900.47;4408561;32;20094;-80
2022/09/09 01:46:35;;;;;;;2.30;1.10;;;;;;;23.24;61.03;97901.75;4408896;32;20145;-80
2022/09/09 01:49:05;;;;;;;2.15;1.00;;;;;;;24.52;56.11;97902.19;4408891;32;20108;-80
2022/09/09 01:51:32;;;;;;;2.30;0.90;;;;;;;23.97;57.69;97901.62;4394847;32;20121;-80
2022/09/09 01:53:58;;;;;;;1.80;1.10;;;;;;;23.98;57.47;97903.28;4408703;32;20446;-80
2022/09/09 01:56:32;;;;;;;1.45;1.00;;;;;;;23.51;58.94;97902.69;4408825;32;20074;-80
2022/09/09 01:59:28;;;;;;;1.70;1.00;;;;;;;22.21;64.03;97901.88;4408554;32;20117;-80
2022/09/09 02:02:13;;;;;;;1.20;0.85;;;;;;;22.86;62.04;97904.59;4408701;32;20445;-80
2022/09/09 02:04:54;;;;;;;1.00;0.90;;;;;;;23.44;59.83;97904.25;4382383;32;20110;-80
2022/09/09 02:07:40;;;;;;;1.33;0.90;;;;;;;24.30;56.43;97912.41;4395165;32;20105;-80
2022/09/09 02:10:07;;;;;;;1.17;0.95;;;;;;;24.12;57.03;97905.34;4394950;32;20129;-80
2022/09/09 02:12:36;;;;;;;2.37;0.90;;;;;;;23.59;58.11;97900.13;4407248;32;20519;-80
2022/09/09 02:15:08;;;;;;;3.55;1.00;;;;;;;22.84;61.16;97903.91;4409900;32;20086;-80
2022/09/09 02:17:36;;;;;;;4.07;1.05;;;;;;;22.45;62.52;97894.38;4410001;32;20151;-80
2022/09/09 02:20:09;;;;;;;1.10;1.00;;;;;;;22.80;61.77;97887.56;4409650;32;20101;-80
2022/09/09 02:22:39;;;;;;;1.98;1.08;;;;;;;22.38;62.56;97880.13;4410157;32;20129;-80
2022/09/09 02:25:08;;;;;;;2.70;1.20;;;;;;;22.12;64.30;97892.25;4410499;32;20093;-80
2022/09/09 02:27:35;;;;;;;2.08;0.90;;;;;;;23.11;60.79;97898.66;4411888;32;20086;-80
2022/09/09 02:30:04;;;;;;;4.25;1.20;;;;;;;23.48;59.42;97897.69;4425863;32;20377;-80
2022/09/09 02:32:33;;;;;;;1.98;1.10;;;;;;;24.37;57.01;97887.94;4426018;32;20090;-80
2022/09/09 02:35:10;;;;;;;1.87;1.10;;;;;;;24.43;56.83;97887.28;4411634;32;20093;-80
2022/09/09 02:37:38;;;;;;;2.42;1.20;;;;;;;24.58;55.88;97899.91;4412181;32;20479;-80
2022/09/09 02:40:08;;;;;;;3.08;1.10;;;;;;;25.24;53.30;97909.75;4425464;32;20668;-80
2022/09/09 02:42:43;;;;;;;3.17;1.10;;;;;;;24.19;55.95;97903.75;4425920;32;20089;-80
2022/09/09 02:45:13;;;;;;;2.40;1.10;;;;;;;24.19;56.20;97911.66;4425899;32;20108;-80
2022/09/09 02:48:04;;;;;;;1.92;1.23;;;;;;;24.46;55.59;97909.91;4411826;32;20085;-80
2022/09/09 02:50:58;;;;;;;2.33;1.30;;;;;;;24.59;55.03;97910.31;4425897;32;20097;-80
2022/09/09 02:53:30;;;;;;;3.00;1.30;;;;;;;24.59;54.84;97914.75;4425912;32;20089;-80
2022/09/09 02:56:17;;;;;;;6.12;1.40;;;;;;;24.39;55.47;97914.97;4425398;32;20440;-80
2022/09/09 02:58:45;;;;;;;4.45;1.60;;;;;;;23.37;58.15;97898.75;4412112;32;20140;-80
2022/09/09 03:01:12;;;;;;;3.05;1.50;;;;;;;22.77;60.62;97903.66;4411732;32;20102;-80
2022/09/09 03:03:41;;;;;;;3.37;1.40;;;;;;;23.17;59.14;97905.94;4425703;32;20136;-80
2022/09/09 03:06:08;;;;;;;3.10;1.55;;;;;;;23.46;58.09;97908.38;4425745;32;20081;-80
2022/09/09 03:08:35;;;;;;;3.30;1.60;;;;;;;22.97;60.13;97904.44;4425373;32;20094;-80
2022/09/09 03:11:02;;;;;;;2.42;1.60;;;;;;;23.19;59.12;97908.44;4425380;32;20094;-80
2022/09/09 03:13:29;;;;;;;3.12;1.62;;;;;;;22.43;61.90;97898.91;4425741;32;20155;-80
2022/09/09 03:15:56;;;;;;;5.47;1.80;;;;;;;22.95;60.65;97904.53;4411404;32;20108;-80
2022/09/09 03:18:23;;;;;;;4.07;1.67;;;;;;;23.40;58.73;97911.63;4425768;32;20100;-80
2022/09/09 03:20:50;;;;;;;5.47;1.90;;;;;;;22.85;60.46;97916.91;4425568;32;20090;-80
2022/09/09 03:23:17;;;;;;;2.92;1.80;;;;;;;23.47;58.37;97907.41;4425583;32;20086;-80
2022/09/09 03:25:51;;;;;;;3.55;1.80;;;;;;;23.54;58.42;97913.75;4425424;32;20094;-80
2022/09/09 03:28:18;;;;;;;2.75;1.73;;;;;;;23.30;58.88;97913.50;4425654;32;20416;-80
2022/09/09 03:30:45;;;;;;;3.85;1.62;;;;;;;22.99;60.01;97916.44;4411242;32;20175;-80
2022/09/09 03:33:12;;;;;;;3.45;1.45;;;;;;;23.07;58.65;97907.81;4425690;32;20156;-80
2022/09/09 03:35:39;;;;;;;2.78;1.60;;;;;;;21.92;62.28;97913.25;4425361;32;20558;-80
2022/09/09 03:38:06;;;;;;;2.30;1.35;;;;;;;21.34;64.47;97913.22;4410355;32;20074;-80
2022/09/09 03:40:33;;;;;;;2.58;1.42;;;;;;;20.80;67.45;97905.75;4425458;32;20503;-80
2022/09/09 03:43:00;;;;;;;2.60;1.50;;;;;;;20.82;67.86;97906.44;4425179;32;20116;-80
2022/09/09 03:45:27;;;;;;;4.43;1.60;;;;;;;20.98;66.73;97901.53;4425310;32;20089;-80
2022/09/09 03:47:54;;;;;;;6.93;1.50;;;;;;;21.01;66.40;97911.75;4425550;32;20077;-80
2022/09/09 03:50:21;;;;;;;2.60;1.50;;;;;;;20.22;70.50;97897.63;4425026;32;20117;-80
2022/09/09 03:52:48;;;;;;;2.92;1.60;;;;;;;20.63;68.65;97899.38;4425436;32;20089;-80
2022/09/09 03:55:15;;;;;;;3.75;1.67;;;;;;;21.09;66.61;97898.81;4425280;32;20104;-80
2022/09/09 03:57:42;;;;;;;2.90;1.58;;;;;;;21.50;65.22;97902.22;4425189;32;20082;-80
2022/09/09 04:00:09;;;;;;;4.32;1.70;;;;;;;21.57;64.90;97905.09;4425214;32;20094;-80
2022/09/09 04:02:36;;;;;;;1.92;1.30;;;;;;;21.77;64.37;97903.31;4425394;32;20094;-80
2022/09/09 04:05:03;;;;;;;2.62;1.50;;;;;;;22.08;62.81;97904.00;4424860;32;20506;-80
2022/09/09 04:07:31;;;;;;;2.80;1.50;;;;;;;22.62;60.85;97907.72;4425409;32;20084;-80
2022/09/09 04:09:58;;;;;;;2.40;1.50;;;;;;;22.77;60.09;97909.75;4418062;32;231895;-80
2022/09/09 04:12:25;;;;;;;2.65;1.55;;;;;;;22.75;59.85;97914.28;4424780;32;20094;-80
2022/09/09 04:14:52;;;;;;;4.20;1.65;;;;;;;23.60;57.39;97928.13;4425013;32;20456;-80
2022/09/09 04:17:19;;;;;;;6.05;1.52;;;;;;;23.31;58.14;97929.16;4425385;32;20112;-80
2022/09/09 04:19:46;;;;;;;5.05;1.60;;;;;;;23.74;57.14;97932.88;4424964;32;20117;-80
2022/09/09 04:22:14;;;;;;;3.35;1.65;;;;;;;24.04;55.48;97939.56;4425171;32;20543;-80
2022/09/09 04:24:40;;;;;;;4.50;1.60;;;;;;;23.64;56.67;97937.41;4425055;32;20142;-80
2022/09/09 04:27:14;;;;;;;4.87;1.70;;;;;;;23.87;55.57;97927.22;4424945;32;20118;-80
2022/09/09 04:29:41;;;;;;;3.78;1.83;;;;;;;23.54;56.96;97921.63;4425107;32;20437;-80
2022/09/09 04:32:08;;;;;;;3.72;1.55;;;;;;;23.87;55.97;97929.88;4424669;32;20094;-80
2022/09/09 04:34:34;;;;;;;2.70;1.50;;;;;;;23.20;58.08;97923.25;4424912;32;20112;-80
2022/09/09 04:37:01;;;;;;;3.60;1.70;;;;;;;23.34;58.07;97931.47;4425065;32;20073;-80
2022/09/09 04:39:28;;;;;;;2.53;1.55;;;;;;;22.28;60.94;97924.00;4424768;32;20105;-80
2022/09/09 04:41:56;;;;;;;4.28;1.62;;;;;;;23.76;56.72;97935.37;4424950;32;20150;-80
2022/09/09 04:44:23;;;;;;;5.97;1.80;;;;;;;23.36;58.08;97926.88;4425044;32;20104;-80
2022/09/09 04:46:50;;;;;;;2.17;1.42;;;;;;;23.67;57.42;97934.47;4424820;32;20082;-80
2022/09/09 04:49:17;;;;;;;2.40;1.52;;;;;;;24.03;56.23;97934.44;4424552;32;20101;-80
2022/09/09 04:51:45;;;;;;;4.72;1.67;;;;;;;24.53;54.38;97932.00;4424910;32;20102;-80
2022/09/09 04:54:12;;;;;;;3.35;1.30;;;;;;;24.64;54.40;97934.38;4424477;32;20493;-80
2022/09/09 04:56:41;;;;;;;3.33;1.40;;;;;;;23.85;56.65;97939.72;4424938;32;20104;-80
2022/09/09 04:59:09;;;;;;;2.12;1.30;;;;;;;24.59;54.32;97946.41;4411079;32;20094;-80
2022/09/09 05:01:36;;;;;;;2.92;1.50;;;;;;;24.47;53.54;97933.47;4424441;32;20569;-80
2022/09/09 05:04:03;;;;;;;3.53;1.30;;;;;;;23.87;55.69;97933.31;4424657;32;20104;-79
2022/09/09 05:06:31;;;;;;;5.37;1.58;;;;;;;23.32;57.77;97937.88;4424865;32;20082;-79
2022/09/09 05:08:58;;;;;;;3.22;1.52;;;;;;;23.72;57.39;97947.19;4424459;32;20148;-79
2022/09/09 05:11:28;;;;;;;4.05;1.58;;;;;;;23.27;59.17;97948.00;4424443;32;20452;-79
2022/09/09 05:13:55;;;;;;;3.85;1.70;;;;;;;23.13;59.69;97941.44;4424664;32;20097;-79
2022/09/09 05:16:23;;;;;;;4.05;1.65;;;;;;;23.02;60.67;97947.72;4410581;32;20119;-79
2022/09/09 05:18:51;;;;;;;4.20;1.67;;;;;;;23.43;59.54;97947.38;4410864;32;20140;-79
2022/09/09 05:21:19;;;;;;;3.62;1.48;;;;;;;24.28;56.42;97940.72;4424209;32;20111;-79
2022/09/09 05:23:46;;;;;;;2.58;1.52;;;;;;;24.81;54.23;97946.69;4424478;32;20553;-79
2022/09/09 05:26:15;;;;;;;2.85;1.30;;;;;;;24.98;52.86;97954.66;4424534;32;20082;-79
2022/09/09 05:28:43;;;;;;;3.80;1.50;;;;;;;24.28;55.14;97944.19;4424177;32;20117;-79
2022/09/09 05:31:12;;;;;;;4.68;2.40;;;;;;;24.71;53.58;97945.97;4424382;32;20097;-79
2022/09/09 05:33:45;;;;;;;3.60;1.98;;;;;;;24.41;55.52;97944.63;4424395;32;20104;-79
2022/09/09 05:36:17;;;;;;;4.20;2.10;;;;;;;24.33;56.22;97955.12;4423955;32;20145;-79
2022/09/09 05:38:45;;;;;;;2.47;1.62;;;;;;;24.98;54.82;97957.31;4424372;32;20113;-79
2022/09/09 05:41:15;;;;;;;4.55;1.55;;;;;;;25.46;52.37;97950.56;4424262;32;20163;-79
2022/09/09 05:43:44;;;;;;;4.10;1.37;;;;;;;24.87;53.93;97950.50;4423871;32;20108;-79
2022/09/09 05:46:13;;;;;;;3.72;1.55;;;;;;;24.90;54.76;97957.28;4424232;32;20465;-79
2022/09/09 05:48:42;;;;;;;2.42;1.55;;;;;;;25.80;52.35;97956.59;4424278;32;20459;-79
2022/09/09 05:51:17;;;;;;;3.97;1.40;;;;;;;25.22;54.38;97960.09;4423737;32;20090;-79
2022/09/09 05:53:45;;;;;;;4.05;1.55;;;;;;;25.45;53.50;97965.59;4424070;32;20365;-79
2022/09/09 05:56:17;;;;;;;4.32;1.40;;;;;;;25.75;53.32;97951.00;4423974;32;20074;-79
2022/09/09 05:58:46;;;;;;;6.22;1.55;;;;;;;24.97;55.30;97953.00;4424110;32;20137;-80
2022/09/09 06:01:18;;;;;;;2.58;1.37;;;;;;;25.06;55.23;97955.56;4425137;32;20106;-80
2022/09/09 06:03:47;;;;;;;2.67;1.40;;;;;;;25.20;54.15;97963.84;4425867;32;20085;-80
2022/09/09 06:06:17;;;;;;;4.78;1.50;;;;;;;25.30;53.65;97964.53;4426112;32;20116;-80
2022/09/09 06:08:45;;;;;;;4.40;1.60;;;;;;;25.41;52.99;97958.97;4426201;32;20160;-79
2022/09/09 06:11:16;;;;;;;5.07;1.60;;;;;;;25.16;53.92;97952.78;4425273;32;20369;-80
2022/09/09 06:13:43;;;;;;;5.20;1.65;;;;;;;25.67;52.91;97953.59;4425640;32;20089;-80
2022/09/09 06:16:12;;;;;;;2.60;1.30;;;;;;;26.39;51.40;97949.38;4425936;32;20081;-80
2022/09/09 06:18:40;;;;;;;2.20;1.30;;;;;;;26.85;49.68;97948.75;4425589;32;20089;-80
2022/09/09 06:21:11;;;;;;;4.78;1.45;;;;;;;26.13;50.51;97964.53;4425797;32;20174;-80
2022/09/09 06:23:40;;;;;;;3.05;1.40;;;;;;;26.87;48.85;97954.69;4411864;32;20093;-79
2022/09/09 06:26:22;;;;;;;3.45;1.10;;;;;;;26.93;47.53;97952.22;4425664;32;20195;-79
2022/09/09 06:28:50;;;;;;;3.15;1.58;;;;;;;27.43;45.85;97953.66;4425907;32;20101;-79
2022/09/09 06:31:22;;;;;;;3.67;1.52;;;;;;;26.85;48.95;97952.22;4412100;32;20225;-79
2022/09/09 06:33:54;;;;;;;3.45;1.60;;;;;;;26.31;50.66;97956.44;4425978;32;20085;-79
2022/09/09 06:36:24;;;;;;;4.40;1.30;;;;;;;24.66;54.59;97957.97;4425928;32;20070;-79
2022/09/09 06:38:51;;;;;;;2.45;1.20;;;;;;;25.96;51.04;97963.75;4425576;32;20090;-79
2022/09/09 06:41:20;;;;;;;2.47;1.08;;;;;;;25.29;52.40;97960.25;4425829;32;20522;-79
2022/09/09 06:43:47;;;;;;;3.33;1.20;;;;;;;25.45;52.16;97957.69;4412023;32;20139;-79
2022/09/09 06:46:16;;;;;;;2.15;1.27;;;;;;;24.88;54.71;97952.13;4411809;32;20376;-79
2022/09/09 06:48:44;;;;;;;2.53;1.35;;;;;;;24.51;54.76;97955.09;4425808;32;20098;-79
2022/09/09 06:51:22;;;;;;;6.00;1.30;;;;;;;25.46;51.84;97953.22;4425719;32;20243;-79
2022/09/09 06:53:54;;;;;;;2.55;1.00;;;;;;;25.42;53.03;97958.00;4425445;32;20085;-79
2022/09/09 06:56:29;;;;;;;2.83;1.15;;;;;;;24.59;54.58;97952.50;4425679;32;20342;-79
2022/09/09 06:58:58;;;;;;;2.33;1.20;;;;;;;24.77;54.08;97949.78;4412302;32;20133;-79
2022/09/09 07:01:27;;;;;;;1.42;1.20;;;;;;;24.68;55.91;97953.38;4425396;32;20106;-78
2022/09/09 07:03:57;;;;;;;2.47;1.10;;;;;;;24.02;58.22;97962.59;4425583;32;20103;-79
2022/09/09 07:06:32;;;;;;;1.55;1.20;;;;;;;24.43;57.10;97957.66;4425496;32;20105;-79
2022/09/09 07:09:03;;;;;;;1.20;0.85;;;;;;;26.02;53.36;97962.25;4425708;32;20094;-79
2022/09/09 07:11:39;;;;;;;1.75;1.02;;;;;;;26.05;50.26;97960.09;4425232;32;20090;-79
2022/09/09 07:14:05;;;;;;;4.07;1.10;;;;;;;27.24;47.78;97965.53;4425326;32;20113;-79
2022/09/09 07:16:33;;;;;;;2.83;1.10;;;;;;;27.28;47.30;97972.13;4425699;32;20139;-79
2022/09/09 07:19:02;;;;;;;1.77;1.02;;;;;;;28.22;45.17;97973.69;4425654;32;20098;-79
2022/09/09 07:21:30;;;;;;;2.15;0.98;;;;;;;28.25;44.14;97970.66;4425198;32;20112;-79
2022/09/09 07:23:57;;;;;;;0.98;0.93;;;;;;;28.32;43.98;97969.97;4425492;32;20085;-79
2022/09/09 07:26:26;;;;;;;1.23;1.02;;;;;;;28.41;44.33;97958.28;4425664;32;20140;-79
2022/09/09 07:28:55;;;;;;;2.87;1.20;;;;;;;28.95;42.06;97968.72;4425195;32;20102;-79
2022/09/09 07:31:30;;;;;;;2.70;1.00;;;;;;;28.67;42.96;97976.44;4425478;32;20108;-79
2022/09/09 07:33:59;;;;;;;2.08;1.05;;;;;;;27.63;46.14;97975.22;4411764;32;20089;-79
2022/09/09 07:36:31;;;;;;;2.87;1.10;;;;;;;26.60;48.71;97966.53;4425108;32;20463;-79
2022/09/09 07:39:07;;;;;;;3.40;1.10;;;;;;;26.17;50.44;97972.00;4425445;32;20142;-79
2022/09/09 07:41:39;;;;;;;4.45;1.20;;;;;;;26.43;49.99;97965.72;4425013;32;20105;-79
2022/09/09 07:44:10;;;;;;;1.48;1.10;;;;;;;26.44;50.18;97956.78;4425430;32;20804;-78
2022/09/09 07:46:39;;;;;;;1.75;1.00;;;;;;;26.43;50.76;97963.91;4425415;32;20139;-79
2022/09/09 07:49:06;;;;;;;3.20;1.00;;;;;;;25.27;53.05;97970.97;4425035;32;20163;-79
2022/09/09 07:51:36;;;;;;;2.22;0.98;;;;;;;25.92;50.57;97959.75;4425208;32;20093;-79
2022/09/09 07:54:05;;;;;;;2.37;1.00;;;;;;;26.89;47.44;97971.22;4425186;32;20093;-79
2022/09/09 07:56:32;;;;;;;1.25;0.80;;;;;;;27.30;46.45;97963.97;4424747;32;20112;-78
2022/09/09 07:59:00;;;;;;;4.53;1.12;;;;;;;25.70;48.01;97963.84;4425296;32;20108;-78
2022/09/09 08:01:33;;;;;;;1.85;1.10;;;;;;;25.39;49.58;97961.78;4425165;32;20094;-78
2022/09/09 08:04:03;;;;;;;3.50;1.10;;;;;;;25.65;50.03;97964.31;4424903;32;20199;-78
2022/09/09 08:06:33;;;;;;;2.92;1.20;;;;;;;27.69;45.50;97971.09;4411366;32;20074;-78
2022/09/09 08:09:00;;;;;;;3.90;1.12;;;;;;;27.23;46.30;97968.34;4425129;32;20116;-77
2022/09/09 08:11:28;;;;;;;5.30;2.22;;;;;;;26.50;49.25;97977.28;4424499;32;20491;-78
2022/09/09 08:13:56;;;;;;;1.35;1.10;;;;;;;27.08;45.77;97979.63;4425166;32;20109;-78
2022/09/09 08:16:30;;;;;;;3.55;1.20;;;;;;;27.39;44.80;97986.78;4425084;32;20389;-78
2022/09/09 08:18:57;;;;;;;3.17;1.10;;;;;;;28.18;43.11;97990.13;4424898;32;20117;-78
2022/09/09 08:21:29;;;;;;;2.42;1.25;;;;;;;29.71;39.54;97994.00;4425002;32;20116;-78
2022/09/09 08:23:58;;;;;;;2.35;0.93;;;;;;;30.16;37.90;97997.31;4424099;32;20101;-79
2022/09/09 08:26:27;;;;;;;1.40;0.98;;;;;;;30.30;37.69;98004.41;4425160;32;20077;-78
2022/09/09 08:28:57;;;;;;;1.58;1.00;;;;;;;30.02;37.00;98006.16;4425222;32;20171;-78
2022/09/09 08:31:29;;;;;;;1.42;1.08;;;;;;;30.43;37.61;98006.38;4424723;32;20094;-78
2022/09/09 08:33:59;;;;;;;1.45;0.77;;;;;;;31.25;36.02;97993.19;4425131;32;20085;-78
2022/09/09 08:36:29;;;;;;;2.50;1.00;;;;;;;31.10;36.49;97993.31;4424850;32;20105;-78
2022/09/09 08:38:57;;;;;;;1.10;0.90;;;;;;;30.48;35.24;97991.44;4424634;32;20113;-78
2022/09/09 08:41:42;;;;;;;1.52;0.88;;;;;;;29.37;37.37;97991.94;4424880;32;20093;-78
2022/09/09 08:44:18;;;;;;;2.33;0.90;;;;;;;29.32;37.60;97981.03;4424987;32;20108;-78
2022/09/09 08:47:00;;;;;;;4.60;1.58;;;;;;;31.72;34.68;97996.87;4424622;32;20108;-79
2022/09/09 08:50:14;;;;;;;1.33;1.10;;;;;;;31.73;33.12;97997.69;4424959;32;20444;-78
2022/09/09 08:53:10;;;;;;;3.00;1.08;;;;;;;31.28;34.42;97992.00;4361766;32;20142;-79
2022/09/09 08:55:49;;;;;;;4.10;1.08;;;;;;;32.63;32.29;97986.50;4410617;32;20574;-79
2022/09/09 08:58:18;;;;;;;1.33;0.90;;;;;;;30.47;35.74;97989.81;4411041;32;20171;-78
2022/09/09 09:01:08;;;;;;;1.45;0.95;;;;;;;30.65;35.04;97981.37;4410511;32;20514;-79
2022/09/09 09:03:57;;;;;;;1.25;1.00;;;;;;;31.33;33.55;97979.72;4424808;32;20113;-79
2022/09/09 09:06:48;;;;;;;2.80;0.80;;;;;;;31.83;33.90;97984.81;4410584;32;20090;-79
2022/09/09 09:09:51;;;;;;;1.85;0.90;;;;;;;32.88;31.40;97991.25;4424725;32;20104;-78
2022/09/09 09:12:22;;;;;;;1.60;0.80;;;;;;;33.19;29.67;97980.69;4424328;32;20089;-78
2022/09/09 09:14:49;;;;;;;2.55;1.00;;;;;;;33.45;29.55;97982.44;4410473;32;20491;-79
2022/09/09 09:17:19;;;;;;;3.50;0.93;;;;;;;31.32;33.62;97978.06;4424495;32;20263;-79
2022/09/09 09:19:47;;;;;;;1.37;0.82;;;;;;;33.64;30.21;97984.19;4424374;32;20086;-79
2022/09/09 09:22:25;;;;;;;1.80;0.93;;;;;;;33.85;30.27;97988.41;4424383;32;20171;-77
2022/09/09 09:25:31;;;;;;;1.87;0.90;;;;;;;32.85;30.90;97983.63;4424485;32;20106;-78
2022/09/09 09:28:05;;;;;;;1.48;1.00;;;;;;;32.03;31.73;97976.84;4411123;32;20089;-79
2022/09/09 09:30:36;;;;;;;1.60;1.00;;;;;;;31.98;33.63;97972.09;4410546;32;20147;-78
2022/09/09 09:33:10;;;;;;;1.95;0.90;;;;;;;32.00;32.49;97970.06;4424528;32;20094;-78
2022/09/09 09:35:37;;;;;;;2.42;0.70;;;;;;;32.09;32.01;97966.16;4425354;32;20093;-78
2022/09/09 09:38:24;;;;;;;0.95;0.80;;;;;;;32.28;31.43;97966.37;4426424;32;20082;-78
2022/09/09 09:41:11;;;;;;;1.00;0.90;;;;;;;30.70;34.59;97960.28;4425647;32;20100;-79
2022/09/09 09:43:42;;;;;;;2.35;1.10;;;;;;;32.19;33.17;97965.75;4426220;32;20181;-78
2022/09/09 09:46:23;;;;;;;2.20;0.90;;;;;;;32.58;32.88;97972.16;4426187;32;20165;-78
2022/09/09 09:49:08;;;;;;;2.72;1.00;;;;;;;32.56;32.23;97971.53;4425814;32;20128;-78
2022/09/09 09:51:36;;;;;;;2.17;0.90;;;;;;;32.31;32.87;97966.81;4426164;32;20078;-78
2022/09/09 09:54:15;;;;;;;3.60;1.10;;;;;;;32.70;34.26;97965.97;4426100;32;20159;-78
2022/09/09 09:56:43;;;;;;;2.62;0.98;;;;;;;33.13;32.88;97960.13;4425675;32;20112;-78
2022/09/09 09:59:34;;;;;;;2.58;0.93;;;;;;;33.80;30.90;97953.41;4426140;32;20376;-78
2022/09/09 10:02:26;;;;;;;1.58;1.00;;;;;;;32.37;32.84;97958.00;4407000;32;20069;-79
2022/09/09 10:05:18;;;;;;;2.42;0.93;;;;;;;34.05;30.45;97952.69;4426037;32;20106;-78
2022/09/09 10:08:10;;;;;;;2.40;0.80;;;;;;;33.76;30.83;97959.44;4426147;32;20093;-79
2022/09/09 10:10:51;;;;;;;3.33;1.00;;;;;;;30.68;31.20;97954.34;4425313;32;20097;-79
2022/09/09 10:13:30;;;;;;;1.77;0.80;;;;;;;30.87;31.88;97952.00;4412213;32;20433;-79
2022/09/09 10:16:39;;;;;;;2.05;1.05;;;;;;;29.90;34.47;97944.69;4411670;32;20128;-79
2022/09/09 10:19:14;;;;;;;1.00;0.80;;;;;;;30.03;34.95;97952.78;4426136;32;20098;-79
2022/09/09 10:22:23;;;;;;;1.52;0.93;;;;;;;29.61;34.42;97958.91;4412279;32;20089;-79
2022/09/09 10:25:17;;;;;;;1.73;0.90;;;;;;;31.16;32.87;97949.06;4417785;32;20082;-80
2022/09/09 10:28:15;;;;;;;0.82;0.77;;;;;;;31.15;33.34;97947.41;4426067;32;20163;-80
2022/09/09 10:30:49;;;;;;;2.47;1.00;;;;;;;32.29;31.52;97954.69;4425492;32;20125;-80
2022/09/09 10:33:34;;;;;;;2.97;0.90;;;;;;;33.59;28.60;97962.59;4425952;32;20135;-80
2022/09/09 10:36:14;;;;;;;3.00;0.85;;;;;;;32.03;30.51;97950.16;4425820;32;20086;-80
2022/09/09 10:38:43;;;;;;;3.28;1.12;;;;;;;31.78;31.06;97948.06;4425560;32;20432;-81
2022/09/09 10:41:18;;;;;;;1.30;0.80;;;;;;;30.60;33.39;97951.78;4412081;32;20118;-80
2022/09/09 10:44:11;;;;;;;2.03;1.02;;;;;;;30.10;33.02;97960.84;4399629;32;20098;-79
2022/09/09 10:47:09;;;;;;;3.03;0.77;;;;;;;30.87;32.92;97954.66;4425235;32;20144;-80
2022/09/09 10:50:19;;;;;;;0.93;0.60;;;;;;;30.59;33.21;97952.81;4425929;32;20093;-80
2022/09/09 10:53:02;;;;;;;1.83;0.88;;;;;;;29.93;33.88;97953.09;4411840;32;20554;-80
2022/09/09 10:55:41;;;;;;;1.80;0.85;;;;;;;28.84;36.60;97951.37;4425696;32;20094;-80
2022/09/09 10:58:12;;;;;;;1.77;0.90;;;;;;;31.77;31.54;97950.94;4425407;32;20151;-80
2022/09/09 11:00:45;;;;;;;2.30;0.93;;;;;;;30.75;33.08;97954.41;4411899;32;20144;-79
2022/09/09 11:03:26;;;;;;;4.10;0.98;;;;;;;30.90;31.88;97940.94;4412103;32;20496;-79
2022/09/09 11:06:06;;;;;;;1.25;0.88;;;;;;;29.74;33.68;97943.06;4411047;32;20108;-79
2022/09/09 11:08:36;;;;;;;1.83;0.88;;;;;;;28.32;35.41;97928.34;4411958;32;20441;-79
2022/09/09 11:11:16;;;;;;;1.05;0.80;;;;;;;29.83;32.58;97939.28;4411741;32;20117;-79
2022/09/09 11:13:58;;;;;;;1.05;0.82;;;;;;;30.93;32.05;97943.22;4425428;32;20098;-80
2022/09/09 11:16:36;;;;;;;2.22;0.80;;;;;;;32.48;29.22;97946.69;4411812;32;20147;-80
2022/09/09 11:19:10;;;;;;;4.75;1.00;;;;;;;31.65;30.28;97950.69;4411716;32;20109;-77
2022/09/09 11:21:45;;;;;;;2.17;0.93;;;;;;;33.31;30.14;97954.09;4425651;32;20486;-77
2022/09/09 11:24:22;;;;;;;1.45;0.82;;;;;;;34.26;27.65;97964.88;4425551;32;20106;-77
2022/09/09 11:27:05;;;;;;;1.70;0.75;;;;;;;35.25;26.58;97959.34;4425187;32;20566;-78
2022/09/09 11:30:02;;;;;;;1.85;0.90;;;;;;;33.14;28.75;97945.72;4411826;32;20456;-77
2022/09/09 11:32:51;;;;;;;1.67;0.80;;;;;;;30.81;32.74;97949.09;4411899;32;20117;-77
2022/09/09 11:35:49;;;;;;;1.62;0.90;;;;;;;31.24;31.99;97937.44;4424941;32;20105;-77
2022/09/09 11:38:21;;;;;;;2.17;0.80;;;;;;;32.22;30.06;97933.31;4425422;32;20085;-79
2022/09/09 11:41:06;;;;;;;2.20;0.90;;;;;;;29.41;33.97;97928.59;4411363;32;20695;-79
2022/09/09 11:43:42;;;;;;;1.45;1.08;;;;;;;30.56;33.26;97925.78;4411958;32;20102;-79
2022/09/09 11:46:09;;;;;;;1.77;0.90;;;;;;;29.37;33.99;97923.66;4425567;32;20101;-79
2022/09/09 11:48:44;;;;;;;0.90;0.70;;;;;;;29.58;33.61;97928.22;4425079;32;20085;-79
2022/09/09 11:51:26;;;;;;;1.12;0.80;;;;;;;30.68;32.14;97914.41;4425306;32;20086;-78
2022/09/09 11:54:02;;;;;;;4.90;0.90;;;;;;;31.80;30.57;97913.22;4425394;32;20098;-78
2022/09/09 11:56:31;;;;;;;0.80;0.77;;;;;;;32.88;28.90;97911.09;4425153;32;20148;-78
2022/09/09 11:59:06;;;;;;;0.73;0.73;;;;;;;32.55;29.98;97911.16;4424306;32;20162;-78
2022/09/09 12:01:32;;;;;;;2.42;1.08;;;;;;;32.56;29.47;97902.94;4424537;32;20090;-77
2022/09/09 12:04:08;;;;;;;1.65;0.80;;;;;;;31.45;31.13;97902.63;4424669;32;20169;-77
2022/09/09 12:06:46;;;;;;;4.05;0.93;;;;;;;29.47;34.93;97895.97;4425404;32;20113;-77